sensor_id;sensor_type;location;lat;lon;timestamp;P1;durP1;ratioP1;P2;durP2;ratioP2
1747;SDS011;871;47.034;15.394;2022-12-11T05:02:46;36.95;;;2.15;;
1747;SDS011;871;47.034;15.394;2022-12-11T05:05:13;37.20;;;2.25;;
1747;SDS011;871;47.034;15.394;2022-12-11T05:07:39;36.67;;;2.10;;
1747;SDS011;871;47.034;15.394;2022-12-11T05:10:07;41.15;;;2.42;;
1747;SDS011;871;47.034;15.394;2022-12-11T05:12:33;36.55;;;2.00;;
1747;SDS011;871;47.034;15.394;2022-12-11T05:14:59;37.00;;;2.23;;
1747;SDS011;871;47.034;15.394;2022-12-11T05:17:25;37.35;;;2.00;;
1747;SDS011;871;47.034;15.394;2022-12-11T05:19:53;37.07;;;2.03;;
1747;SDS011;871;47.034;15.394;2022-12-11T05:22:19;38.38;;;3.05;;
1747;SDS011;871;47.034;15.394;2022-12-11T05:24:46;36.72;;;2.22;;
1747;SDS011;871;47.034;15.394;2022-12-11T05:27:12;37.35;;;2.33;;
1747;SDS011;871;47.034;15.394;2022-12-11T05:29:41;37.15;;;2.45;;
1747;SDS011;871;47.034;15.394;2022-12-11T05:32:07;37.10;;;2.50;;
1747;SDS011;871;47.034;15.394;2022-12-11T05:34:34;37.80;;;3.10;;
1747;SDS011;871;47.034;15.394;2022-12-11T05:37:00;35.97;;;1.63;;
1747;SDS011;871;47.034;15.394;2022-12-11T05:39:26;38.17;;;3.03;;
1747;SDS011;871;47.034;15.394;2022-12-11T05:41:52;37.38;;;3.20;;
1747;SDS011;871;47.034;15.394;2022-12-11T05:44:18;37.13;;;2.80;;
1747;SDS011;871;47.034;15.394;2022-12-11T05:46:44;37.30;;;2.60;;
1747;SDS011;871;47.034;15.394;2022-12-11T05:49:10;35.90;;;1.70;;
1747;SDS011;871;47.034;15.394;2022-12-11T05:51:37;37.20;;;2.55;;
1747;SDS011;871;47.034;15.394;2022-12-11T05:54:05;37.72;;;2.83;;
1747;SDS011;871;47.034;15.394;2022-12-11T05:56:32;36.72;;;2.40;;
1747;SDS011;871;47.034;15.394;2022-12-11T05:58:59;35.70;;;1.63;;
1747;SDS011;871;47.034;15.394;2022-12-11T06:01:29;35.30;;;1.10;;
1747;SDS011;871;47.034;15.394;2022-12-11T06:03:56;36.00;;;2.00;;
1747;SDS011;871;47.034;15.394;2022-12-11T06:06:22;35.75;;;1.38;;
1747;SDS011;871;47.034;15.394;2022-12-11T06:08:49;36.58;;;1.83;;
1747;SDS011;871;47.034;15.394;2022-12-11T06:11:15;36.15;;;1.95;;
1747;SDS011;871;47.034;15.394;2022-12-11T06:13:41;36.80;;;2.60;;
1747;SDS011;871;47.034;15.394;2022-12-11T06:16:08;35.33;;;1.40;;
1747;SDS011;871;47.034;15.394;2022-12-11T06:18:35;36.30;;;2.00;;
1747;SDS011;871;47.034;15.394;2022-12-11T06:21:09;35.58;;;1.33;;
1747;SDS011;871;47.034;15.394;2022-12-11T06:23:35;36.42;;;2.25;;
1747;SDS011;871;47.034;15.394;2022-12-11T06:26:02;36.97;;;2.10;;
1747;SDS011;871;47.034;15.394;2022-12-11T06:28:29;36.50;;;2.40;;
1747;SDS011;871;47.034;15.394;2022-12-11T06:30:58;37.22;;;2.10;;
1747;SDS011;871;47.034;15.394;2022-12-11T06:33:26;36.03;;;2.95;;
1747;SDS011;871;47.034;15.394;2022-12-11T06:35:52;37.30;;;2.53;;
1747;SDS011;871;47.034;15.394;2022-12-11T06:38:18;37.25;;;2.30;;
1747;SDS011;871;47.034;15.394;2022-12-11T06:40:44;35.92;;;1.52;;
1747;SDS011;871;47.034;15.394;2022-12-11T06:43:10;35.90;;;2.05;;
1747;SDS011;871;47.034;15.394;2022-12-11T06:45:36;35.70;;;2.10;;
1747;SDS011;871;47.034;15.394;2022-12-11T06:48:03;35.67;;;2.00;;
1747;SDS011;871;47.034;15.394;2022-12-11T06:50:29;35.80;;;1.83;;
1747;SDS011;871;47.034;15.394;2022-12-11T06:52:55;36.13;;;1.92;;
1747;SDS011;871;47.034;15.394;2022-12-11T06:55:21;37.03;;;2.45;;
1747;SDS011;871;47.034;15.394;2022-12-11T06:57:48;36.90;;;2.30;;
1747;SDS011;871;47.034;15.394;2022-12-11T07:00:14;36.80;;;2.50;;
1747;SDS011;871;47.034;15.394;2022-12-11T07:02:40;35.80;;;1.40;;
1747;SDS011;871;47.034;15.394;2022-12-11T07:05:07;36.05;;;1.85;;
1747;SDS011;871;47.034;15.394;2022-12-11T07:07:33;36.60;;;2.08;;
1747;SDS011;871;47.034;15.394;2022-12-11T07:09:59;36.27;;;2.20;;
1747;SDS011;871;47.034;15.394;2022-12-11T07:12:25;36.38;;;1.90;;
1747;SDS011;871;47.034;15.394;2022-12-11T07:14:51;35.90;;;1.90;;
1747;SDS011;871;47.034;15.394;2022-12-11T07:17:18;36.70;;;2.73;;
1747;SDS011;871;47.034;15.394;2022-12-11T07:19:44;36.30;;;2.05;;
1747;SDS011;871;47.034;15.394;2022-12-11T07:22:10;35.70;;;1.57;;
1747;SDS011;871;47.034;15.394;2022-12-11T07:24:36;36.33;;;1.83;;
1747;SDS011;871;47.034;15.394;2022-12-11T07:27:03;36.58;;;2.08;;
1747;SDS011;871;47.034;15.394;2022-12-11T07:29:30;35.47;;;1.73;;
1747;SDS011;871;47.034;15.394;2022-12-11T07:31:56;37.25;;;2.60;;
1747;SDS011;871;47.034;15.394;2022-12-11T07:34:22;36.20;;;1.90;;
1747;SDS011;871;47.034;15.394;2022-12-11T07:36:48;40.38;;;2.38;;
1747;SDS011;871;47.034;15.394;2022-12-11T07:39:14;35.53;;;1.60;;
1747;SDS011;871;47.034;15.394;2022-12-11T07:41:40;36.70;;;2.80;;
1747;SDS011;871;47.034;15.394;2022-12-11T07:44:07;36.33;;;2.40;;
1747;SDS011;871;47.034;15.394;2022-12-11T07:46:33;36.38;;;1.90;;
1747;SDS011;871;47.034;15.394;2022-12-11T07:48:59;36.85;;;2.60;;
1747;SDS011;871;47.034;15.394;2022-12-11T07:51:27;36.85;;;2.42;;
1747;SDS011;871;47.034;15.394;2022-12-11T07:53:57;36.33;;;2.33;;
1747;SDS011;871;47.034;15.394;2022-12-11T07:56:24;36.15;;;1.95;;
1747;SDS011;871;47.034;15.394;2022-12-11T07:58:51;37.72;;;2.67;;
1747;SDS011;871;47.034;15.394;2022-12-11T08:01:21;36.33;;;1.80;;
1747;SDS011;871;47.034;15.394;2022-12-11T08:03:48;36.20;;;1.92;;
1747;SDS011;871;47.034;15.394;2022-12-11T08:06:16;37.47;;;2.53;;
1747;SDS011;871;47.034;15.394;2022-12-11T08:08:42;36.15;;;2.35;;
1747;SDS011;871;47.034;15.394;2022-12-11T08:11:10;38.30;;;2.58;;
1747;SDS011;871;47.034;15.394;2022-12-11T08:13:37;37.70;;;3.00;;
1747;SDS011;871;47.034;15.394;2022-12-11T08:16:07;36.05;;;2.13;;
1747;SDS011;871;47.034;15.394;2022-12-11T08:18:34;37.53;;;2.30;;
1747;SDS011;871;47.034;15.394;2022-12-11T08:21:33;35.70;;;2.07;;
1747;SDS011;871;47.034;15.394;2022-12-11T08:23:53;37.38;;;2.20;;
1747;SDS011;871;47.034;15.394;2022-12-11T08:26:21;40.17;;;2.38;;
1747;SDS011;871;47.034;15.394;2022-12-11T08:28:47;36.10;;;2.20;;
1747;SDS011;871;47.034;15.394;2022-12-11T08:31:14;37.00;;;2.70;;
1747;SDS011;871;47.034;15.394;2022-12-11T08:33:40;35.75;;;1.70;;
1747;SDS011;871;47.034;15.394;2022-12-11T08:36:07;39.08;;;3.60;;
1747;SDS011;871;47.034;15.394;2022-12-11T08:38:34;36.63;;;2.80;;
1747;SDS011;871;47.034;15.394;2022-12-11T08:41:08;37.65;;;2.35;;
1747;SDS011;871;47.034;15.394;2022-12-11T08:43:35;37.25;;;2.97;;
1747;SDS011;871;47.034;15.394;2022-12-11T08:46:01;36.15;;;2.50;;
1747;SDS011;871;47.034;15.394;2022-12-11T08:48:27;37.37;;;2.73;;
1747;SDS011;871;47.034;15.394;2022-12-11T08:50:53;36.22;;;2.50;;
1747;SDS011;871;47.034;15.394;2022-12-11T08:53:19;37.25;;;2.30;;
1747;SDS011;871;47.034;15.394;2022-12-11T08:55:45;37.45;;;2.88;;
1747;SDS011;871;47.034;15.394;2022-12-11T08:58:11;36.80;;;2.80;;
1747;SDS011;871;47.034;15.394;2022-12-11T09:00:37;37.25;;;2.63;;
1747;SDS011;871;47.034;15.394;2022-12-11T09:03:04;36.70;;;2.70;;
1747;SDS011;871;47.034;15.394;2022-12-11T09:05:30;37.20;;;2.57;;
1747;SDS011;871;47.034;15.394;2022-12-11T09:07:57;37.00;;;1.67;;
1747;SDS011;871;47.034;15.394;2022-12-11T09:10:23;36.55;;;2.90;;
1747;SDS011;871;47.034;15.394;2022-12-11T09:12:49;35.65;;;2.05;;
1747;SDS011;871;47.034;15.394;2022-12-11T09:15:15;37.33;;;2.50;;
1747;SDS011;871;47.034;15.394;2022-12-11T09:17:41;36.33;;;2.08;;
1747;SDS011;871;47.034;15.394;2022-12-11T09:20:07;36.80;;;2.67;;
1747;SDS011;871;47.034;15.394;2022-12-11T09:22:33;37.15;;;3.00;;
1747;SDS011;871;47.034;15.394;2022-12-11T09:24:59;37.10;;;2.30;;
1747;SDS011;871;47.034;15.394;2022-12-11T09:27:26;37.80;;;2.75;;
1747;SDS011;871;47.034;15.394;2022-12-11T09:29:53;38.45;;;3.33;;
1747;SDS011;871;47.034;15.394;2022-12-11T09:32:19;37.97;;;2.92;;
1747;SDS011;871;47.034;15.394;2022-12-11T09:34:45;35.55;;;1.63;;
1747;SDS011;871;47.034;15.394;2022-12-11T09:37:11;36.70;;;2.13;;
1747;SDS011;871;47.034;15.394;2022-12-11T09:39:37;36.00;;;2.10;;
1747;SDS011;871;47.034;15.394;2022-12-11T09:44:43;36.15;;;2.00;;
1747;SDS011;871;47.034;15.394;2022-12-11T09:49:53;38.67;;;2.85;;
1747;SDS011;871;47.034;15.394;2022-12-11T09:52:26;38.63;;;2.95;;
1747;SDS011;871;47.034;15.394;2022-12-11T09:54:58;37.58;;;2.78;;
1747;SDS011;871;47.034;15.394;2022-12-11T10:00:59;36.10;;;2.22;;
1747;SDS011;871;47.034;15.394;2022-12-11T10:03:25;36.70;;;2.75;;
1747;SDS011;871;47.034;15.394;2022-12-11T10:08:27;36.08;;;2.35;;
1747;SDS011;871;47.034;15.394;2022-12-11T10:18:22;38.10;;;2.78;;
1747;SDS011;871;47.034;15.394;2022-12-11T10:20:49;36.17;;;2.20;;
1747;SDS011;871;47.034;15.394;2022-12-11T10:23:39;37.35;;;2.92;;
1747;SDS011;871;47.034;15.394;2022-12-11T10:26:05;39.42;;;3.88;;
1747;SDS011;871;47.034;15.394;2022-12-11T10:28:32;37.23;;;2.60;;
1747;SDS011;871;47.034;15.394;2022-12-11T10:33:31;38.63;;;3.58;;
1747;SDS011;871;47.034;15.394;2022-12-11T10:35:58;37.70;;;3.03;;
1747;SDS011;871;47.034;15.394;2022-12-11T10:38:28;37.53;;;2.92;;
1747;SDS011;871;47.034;15.394;2022-12-11T10:43:41;36.97;;;3.00;;
1747;SDS011;871;47.034;15.394;2022-12-11T10:48:48;36.47;;;2.70;;
1747;SDS011;871;47.034;15.394;2022-12-11T10:51:14;38.42;;;3.13;;
1747;SDS011;871;47.034;15.394;2022-12-11T10:53:40;38.00;;;3.10;;
1747;SDS011;871;47.034;15.394;2022-12-11T10:56:08;35.63;;;1.95;;
1747;SDS011;871;47.034;15.394;2022-12-11T10:58:36;35.50;;;2.00;;
1747;SDS011;871;47.034;15.394;2022-12-11T11:01:24;38.15;;;2.88;;
1747;SDS011;871;47.034;15.394;2022-12-11T11:03:56;37.33;;;3.00;;
1747;SDS011;871;47.034;15.394;2022-12-11T11:06:23;38.60;;;3.17;;
1747;SDS011;871;47.034;15.394;2022-12-11T11:08:52;37.80;;;2.60;;
1747;SDS011;871;47.034;15.394;2022-12-11T11:13:44;37.50;;;2.90;;
1747;SDS011;871;47.034;15.394;2022-12-11T11:16:11;36.87;;;2.70;;
1747;SDS011;871;47.034;15.394;2022-12-11T11:18:39;38.10;;;3.42;;
1747;SDS011;871;47.034;15.394;2022-12-11T11:21:25;37.43;;;3.43;;
1747;SDS011;871;47.034;15.394;2022-12-11T11:23:54;37.72;;;2.70;;
1747;SDS011;871;47.034;15.394;2022-12-11T11:26:20;36.95;;;2.50;;
1747;SDS011;871;47.034;15.394;2022-12-11T11:28:50;37.75;;;2.75;;
1747;SDS011;871;47.034;15.394;2022-12-11T11:31:17;36.90;;;2.78;;
1747;SDS011;871;47.034;15.394;2022-12-11T11:33:53;38.40;;;2.97;;
1747;SDS011;871;47.034;15.394;2022-12-11T11:36:27;35.95;;;1.90;;
1747;SDS011;871;47.034;15.394;2022-12-11T11:39:16;36.85;;;2.60;;
1747;SDS011;871;47.034;15.394;2022-12-11T11:44:37;35.72;;;2.20;;
1747;SDS011;871;47.034;15.394;2022-12-11T11:47:26;38.40;;;3.53;;
1747;SDS011;871;47.034;15.394;2022-12-11T11:49:55;36.78;;;3.10;;
1747;SDS011;871;47.034;15.394;2022-12-11T11:52:42;37.15;;;2.60;;
1747;SDS011;871;47.034;15.394;2022-12-11T11:55:16;39.55;;;3.53;;
1747;SDS011;871;47.034;15.394;2022-12-11T12:00:19;37.97;;;3.72;;
1747;SDS011;871;47.034;15.394;2022-12-11T12:02:49;39.83;;;3.05;;
1747;SDS011;871;47.034;15.394;2022-12-11T12:05:21;38.73;;;2.40;;
1747;SDS011;871;47.034;15.394;2022-12-11T12:08:01;36.60;;;2.75;;
1747;SDS011;871;47.034;15.394;2022-12-11T12:10:31;38.20;;;3.50;;
1747;SDS011;871;47.034;15.394;2022-12-11T12:13:07;36.28;;;2.80;;
1747;SDS011;871;47.034;15.394;2022-12-11T12:15:41;37.15;;;3.38;;
1747;SDS011;871;47.034;15.394;2022-12-11T12:18:14;37.47;;;2.80;;
1747;SDS011;871;47.034;15.394;2022-12-11T12:20:54;37.38;;;3.15;;
1747;SDS011;871;47.034;15.394;2022-12-11T12:23:37;37.75;;;3.50;;
1747;SDS011;871;47.034;15.394;2022-12-11T12:26:28;37.45;;;3.10;;
1747;SDS011;871;47.034;15.394;2022-12-11T12:36:55;35.70;;;1.75;;
1747;SDS011;871;47.034;15.394;2022-12-11T12:42:10;36.50;;;2.60;;
1747;SDS011;871;47.034;15.394;2022-12-11T12:44:42;37.03;;;2.83;;
1747;SDS011;871;47.034;15.394;2022-12-11T12:47:12;37.35;;;2.65;;
1747;SDS011;871;47.034;15.394;2022-12-11T12:49:47;37.08;;;3.00;;
1747;SDS011;871;47.034;15.394;2022-12-11T12:52:19;38.65;;;2.90;;
1747;SDS011;871;47.034;15.394;2022-12-11T12:54:46;36.75;;;2.67;;
1747;SDS011;871;47.034;15.394;2022-12-11T12:57:33;39.20;;;3.30;;
1747;SDS011;871;47.034;15.394;2022-12-11T13:00:00;37.85;;;3.20;;
1747;SDS011;871;47.034;15.394;2022-12-11T13:02:26;38.67;;;2.85;;
1747;SDS011;871;47.034;15.394;2022-12-11T13:05:00;36.95;;;2.90;;
1747;SDS011;871;47.034;15.394;2022-12-11T13:07:30;37.22;;;2.95;;
1747;SDS011;871;47.034;15.394;2022-12-11T13:10:02;36.25;;;2.63;;
1747;SDS011;871;47.034;15.394;2022-12-11T13:12:31;36.70;;;2.67;;
1747;SDS011;871;47.034;15.394;2022-12-11T13:14:57;37.47;;;3.10;;
1747;SDS011;871;47.034;15.394;2022-12-11T13:17:34;37.10;;;2.00;;
1747;SDS011;871;47.034;15.394;2022-12-11T13:20:11;37.03;;;3.20;;
1747;SDS011;871;47.034;15.394;2022-12-11T13:22:46;35.95;;;2.08;;
1747;SDS011;871;47.034;15.394;2022-12-11T13:25:23;36.42;;;2.47;;
1747;SDS011;871;47.034;15.394;2022-12-11T13:27:49;37.42;;;3.08;;
1747;SDS011;871;47.034;15.394;2022-12-11T13:35:21;36.20;;;2.30;;
1747;SDS011;871;47.034;15.394;2022-12-11T13:37:48;36.15;;;2.60;;
1747;SDS011;871;47.034;15.394;2022-12-11T13:40:21;37.60;;;3.30;;
1747;SDS011;871;47.034;15.394;2022-12-11T13:42:49;35.50;;;2.22;;
1747;SDS011;871;47.034;15.394;2022-12-11T13:47:49;35.97;;;2.22;;
1747;SDS011;871;47.034;15.394;2022-12-11T13:50:23;35.13;;;1.52;;
1747;SDS011;871;47.034;15.394;2022-12-11T13:52:56;36.88;;;2.72;;
1747;SDS011;871;47.034;15.394;2022-12-11T13:55:30;36.63;;;2.20;;
1747;SDS011;871;47.034;15.394;2022-12-11T13:57:57;36.30;;;2.40;;
1747;SDS011;871;47.034;15.394;2022-12-11T14:00:27;36.33;;;2.40;;
1747;SDS011;871;47.034;15.394;2022-12-11T14:02:55;36.85;;;2.70;;
1747;SDS011;871;47.034;15.394;2022-12-11T14:05:23;36.35;;;2.20;;
1747;SDS011;871;47.034;15.394;2022-12-11T14:07:50;36.97;;;2.83;;
1747;SDS011;871;47.034;15.394;2022-12-11T14:12:46;36.55;;;2.50;;
1747;SDS011;871;47.034;15.394;2022-12-11T14:15:14;35.85;;;2.42;;
1747;SDS011;871;47.034;15.394;2022-12-11T14:17:41;36.75;;;3.10;;
1747;SDS011;871;47.034;15.394;2022-12-11T14:20:41;36.95;;;3.08;;
1747;SDS011;871;47.034;15.394;2022-12-11T14:23:07;35.72;;;1.75;;
1747;SDS011;871;47.034;15.394;2022-12-11T14:25:40;37.08;;;2.80;;
1747;SDS011;871;47.034;15.394;2022-12-11T14:28:14;37.15;;;2.78;;
1747;SDS011;871;47.034;15.394;2022-12-11T14:30:50;36.28;;;2.63;;
1747;SDS011;871;47.034;15.394;2022-12-11T14:33:17;36.10;;;2.33;;
1747;SDS011;871;47.034;15.394;2022-12-11T14:35:45;35.72;;;1.88;;
1747;SDS011;871;47.034;15.394;2022-12-11T14:38:13;37.00;;;2.28;;
1747;SDS011;871;47.034;15.394;2022-12-11T14:40:41;36.42;;;2.60;;
1747;SDS011;871;47.034;15.394;2022-12-11T14:43:13;36.17;;;1.80;;
1747;SDS011;871;47.034;15.394;2022-12-11T14:45:41;37.28;;;2.20;;
1747;SDS011;871;47.034;15.394;2022-12-11T14:48:15;35.90;;;2.30;;
1747;SDS011;871;47.034;15.394;2022-12-11T14:50:45;37.08;;;2.35;;
1747;SDS011;871;47.034;15.394;2022-12-11T14:53:14;36.70;;;2.40;;
1747;SDS011;871;47.034;15.394;2022-12-11T14:55:40;37.15;;;2.80;;
1747;SDS011;871;47.034;15.394;2022-12-11T14:58:22;38.05;;;3.45;;
1747;SDS011;871;47.034;15.394;2022-12-11T15:03:23;36.72;;;2.20;;
1747;SDS011;871;47.034;15.394;2022-12-11T15:05:51;37.00;;;2.30;;
1747;SDS011;871;47.034;15.394;2022-12-11T15:08:19;37.90;;;2.38;;
1747;SDS011;871;47.034;15.394;2022-12-11T15:13:23;36.70;;;2.38;;
1747;SDS011;871;47.034;15.394;2022-12-11T15:15:49;35.80;;;1.98;;
1747;SDS011;871;47.034;15.394;2022-12-11T15:18:38;39.35;;;2.70;;
1747;SDS011;871;47.034;15.394;2022-12-11T15:21:05;36.90;;;1.85;;
1747;SDS011;871;47.034;15.394;2022-12-11T15:23:36;35.80;;;2.40;;
1747;SDS011;871;47.034;15.394;2022-12-11T15:26:11;38.03;;;3.40;;
1747;SDS011;871;47.034;15.394;2022-12-11T15:28:37;38.00;;;3.08;;
1747;SDS011;871;47.034;15.394;2022-12-11T15:31:21;36.13;;;2.50;;
1747;SDS011;871;47.034;15.394;2022-12-11T15:33:49;36.88;;;2.30;;
1747;SDS011;871;47.034;15.394;2022-12-11T15:36:28;37.30;;;3.22;;
1747;SDS011;871;47.034;15.394;2022-12-11T15:38:55;36.72;;;2.35;;
1747;SDS011;871;47.034;15.394;2022-12-11T15:41:21;37.80;;;3.40;;
1747;SDS011;871;47.034;15.394;2022-12-11T15:43:51;36.70;;;1.75;;
1747;SDS011;871;47.034;15.394;2022-12-11T15:46:18;38.05;;;3.20;;
1747;SDS011;871;47.034;15.394;2022-12-11T15:48:46;36.15;;;1.92;;
1747;SDS011;871;47.034;15.394;2022-12-11T15:51:13;36.42;;;2.67;;
1747;SDS011;871;47.034;15.394;2022-12-11T15:53:39;36.92;;;2.90;;
1747;SDS011;871;47.034;15.394;2022-12-11T15:56:05;38.30;;;2.53;;
1747;SDS011;871;47.034;15.394;2022-12-11T15:58:31;35.55;;;1.90;;
1747;SDS011;871;47.034;15.394;2022-12-11T16:01:00;35.55;;;1.60;;
1747;SDS011;871;47.034;15.394;2022-12-11T16:03:26;38.70;;;2.47;;
1747;SDS011;871;47.034;15.394;2022-12-11T16:05:53;36.55;;;1.75;;
1747;SDS011;871;47.034;15.394;2022-12-11T16:08:20;38.38;;;2.92;;
1747;SDS011;871;47.034;15.394;2022-12-11T16:10:46;36.47;;;2.22;;
1747;SDS011;871;47.034;15.394;2022-12-11T16:13:13;42.17;;;3.45;;
1747;SDS011;871;47.034;15.394;2022-12-11T16:15:40;36.80;;;2.38;;
1747;SDS011;871;47.034;15.394;2022-12-11T16:18:08;37.17;;;2.38;;
1747;SDS011;871;47.034;15.394;2022-12-11T16:20:35;37.85;;;3.13;;
1747;SDS011;871;47.034;15.394;2022-12-11T16:23:01;36.45;;;2.45;;
1747;SDS011;871;47.034;15.394;2022-12-11T16:25:28;35.35;;;1.65;;
1747;SDS011;871;47.034;15.394;2022-12-11T16:27:56;37.90;;;3.17;;
1747;SDS011;871;47.034;15.394;2022-12-11T16:30:23;37.47;;;3.00;;
1747;SDS011;871;47.034;15.394;2022-12-11T16:32:50;37.03;;;2.40;;
1747;SDS011;871;47.034;15.394;2022-12-11T16:35:16;37.10;;;2.42;;
1747;SDS011;871;47.034;15.394;2022-12-11T16:37:43;41.67;;;4.25;;
1747;SDS011;871;47.034;15.394;2022-12-11T16:40:09;37.00;;;2.72;;
1747;SDS011;871;47.034;15.394;2022-12-11T16:42:36;36.38;;;2.30;;
1747;SDS011;871;47.034;15.394;2022-12-11T16:45:03;38.08;;;2.90;;
1747;SDS011;871;47.034;15.394;2022-12-11T16:47:31;35.63;;;2.10;;
1747;SDS011;871;47.034;15.394;2022-12-11T16:49:57;35.88;;;1.90;;
1747;SDS011;871;47.034;15.394;2022-12-11T16:52:23;38.28;;;3.50;;
1747;SDS011;871;47.034;15.394;2022-12-11T16:54:49;36.97;;;2.72;;
1747;SDS011;871;47.034;15.394;2022-12-11T16:57:16;39.92;;;3.17;;
1747;SDS011;871;47.034;15.394;2022-12-11T16:59:42;35.83;;;2.20;;
1747;SDS011;871;47.034;15.394;2022-12-11T17:02:08;36.83;;;2.38;;
1747;SDS011;871;47.034;15.394;2022-12-11T17:04:36;38.00;;;2.50;;
1747;SDS011;871;47.034;15.394;2022-12-11T17:07:02;37.05;;;2.72;;
1747;SDS011;871;47.034;15.394;2022-12-11T17:09:28;36.95;;;2.92;;
1747;SDS011;871;47.034;15.394;2022-12-11T17:11:54;37.38;;;2.65;;
1747;SDS011;871;47.034;15.394;2022-12-11T17:14:21;40.65;;;4.90;;
1747;SDS011;871;47.034;15.394;2022-12-11T17:16:47;37.75;;;3.20;;
1747;SDS011;871;47.034;15.394;2022-12-11T17:19:14;36.40;;;1.90;;
1747;SDS011;871;47.034;15.394;2022-12-11T17:21:40;38.55;;;4.20;;
1747;SDS011;871;47.034;15.394;2022-12-11T17:24:07;38.42;;;4.57;;
1747;SDS011;871;47.034;15.394;2022-12-11T17:26:34;37.92;;;3.20;;
1747;SDS011;871;47.034;15.394;2022-12-11T17:29:01;40.85;;;2.90;;
1747;SDS011;871;47.034;15.394;2022-12-11T17:31:29;35.45;;;1.73;;
1747;SDS011;871;47.034;15.394;2022-12-11T17:33:56;38.92;;;3.50;;
1747;SDS011;871;47.034;15.394;2022-12-11T17:36:25;38.20;;;2.92;;
1747;SDS011;871;47.034;15.394;2022-12-11T17:38:52;39.28;;;4.00;;
1747;SDS011;871;47.034;15.394;2022-12-11T17:41:19;47.15;;;4.18;;
1747;SDS011;871;47.034;15.394;2022-12-11T17:43:47;44.65;;;4.80;;
1747;SDS011;871;47.034;15.394;2022-12-11T17:46:13;46.00;;;6.28;;
1747;SDS011;871;47.034;15.394;2022-12-11T17:48:39;44.03;;;5.78;;
1747;SDS011;871;47.034;15.394;2022-12-11T17:51:06;45.20;;;5.88;;
1747;SDS011;871;47.034;15.394;2022-12-11T17:53:34;42.05;;;5.22;;
1747;SDS011;871;47.034;15.394;2022-12-11T17:56:01;40.30;;;4.28;;
1747;SDS011;871;47.034;15.394;2022-12-11T17:58:28;39.95;;;4.00;;
1747;SDS011;871;47.034;15.394;2022-12-11T18:00:55;38.03;;;3.63;;
1747;SDS011;871;47.034;15.394;2022-12-11T18:03:22;38.03;;;3.47;;
1747;SDS011;871;47.034;15.394;2022-12-11T18:05:49;41.97;;;5.00;;
1747;SDS011;871;47.034;15.394;2022-12-11T18:08:20;38.95;;;4.75;;
1747;SDS011;871;47.034;15.394;2022-12-11T18:10:47;39.15;;;4.13;;
1747;SDS011;871;47.034;15.394;2022-12-11T18:13:13;39.17;;;4.15;;
1747;SDS011;871;47.034;15.394;2022-12-11T18:15:39;40.03;;;4.30;;
1747;SDS011;871;47.034;15.394;2022-12-11T18:18:06;40.30;;;4.93;;
1747;SDS011;871;47.034;15.394;2022-12-11T18:20:32;40.80;;;5.32;;
1747;SDS011;871;47.034;15.394;2022-12-11T18:23:00;43.90;;;5.93;;
1747;SDS011;871;47.034;15.394;2022-12-11T18:25:26;40.25;;;4.78;;
1747;SDS011;871;47.034;15.394;2022-12-11T18:27:53;39.80;;;4.55;;
1747;SDS011;871;47.034;15.394;2022-12-11T18:30:21;45.55;;;6.75;;
1747;SDS011;871;47.034;15.394;2022-12-11T18:32:47;44.15;;;5.85;;
1747;SDS011;871;47.034;15.394;2022-12-11T18:35:14;40.45;;;5.35;;
1747;SDS011;871;47.034;15.394;2022-12-11T18:37:40;42.20;;;5.53;;
1747;SDS011;871;47.034;15.394;2022-12-11T18:40:07;39.67;;;4.15;;
1747;SDS011;871;47.034;15.394;2022-12-11T18:42:35;39.17;;;3.97;;
1747;SDS011;871;47.034;15.394;2022-12-11T18:45:01;42.50;;;5.00;;
1747;SDS011;871;47.034;15.394;2022-12-11T18:47:29;38.95;;;4.00;;
1747;SDS011;871;47.034;15.394;2022-12-11T18:49:55;43.25;;;7.30;;
1747;SDS011;871;47.034;15.394;2022-12-11T18:52:23;46.33;;;9.23;;
1747;SDS011;871;47.034;15.394;2022-12-11T18:54:49;46.40;;;6.88;;
1747;SDS011;871;47.034;15.394;2022-12-11T18:57:16;46.00;;;6.88;;
1747;SDS011;871;47.034;15.394;2022-12-11T18:59:43;45.85;;;6.95;;
1747;SDS011;871;47.034;15.394;2022-12-11T19:02:12;42.42;;;5.60;;
1747;SDS011;871;47.034;15.394;2022-12-11T19:04:38;40.03;;;5.20;;
1747;SDS011;871;47.034;15.394;2022-12-11T19:07:04;41.40;;;5.60;;
1747;SDS011;871;47.034;15.394;2022-12-11T19:09:30;42.40;;;5.60;;
1747;SDS011;871;47.034;15.394;2022-12-11T19:11:57;42.28;;;5.68;;
1747;SDS011;871;47.034;15.394;2022-12-11T19:14:23;41.92;;;5.22;;
1747;SDS011;871;47.034;15.394;2022-12-11T19:16:49;40.88;;;5.72;;
1747;SDS011;871;47.034;15.394;2022-12-11T19:19:17;42.30;;;5.70;;
1747;SDS011;871;47.034;15.394;2022-12-11T19:21:45;40.85;;;5.00;;
1747;SDS011;871;47.034;15.394;2022-12-11T19:24:12;43.60;;;6.50;;
1747;SDS011;871;47.034;15.394;2022-12-11T19:26:39;39.95;;;5.20;;
1747;SDS011;871;47.034;15.394;2022-12-11T19:29:05;40.78;;;5.13;;
1747;SDS011;871;47.034;15.394;2022-12-11T19:31:32;40.83;;;5.35;;
1747;SDS011;871;47.034;15.394;2022-12-11T19:33:59;41.55;;;5.35;;
1747;SDS011;871;47.034;15.394;2022-12-11T19:36:27;42.83;;;6.35;;
1747;SDS011;871;47.034;15.394;2022-12-11T19:38:54;42.15;;;5.60;;
1747;SDS011;871;47.034;15.394;2022-12-11T19:41:23;40.55;;;4.22;;
1747;SDS011;871;47.034;15.394;2022-12-11T19:43:51;41.50;;;5.25;;
1747;SDS011;871;47.034;15.394;2022-12-11T19:46:17;46.67;;;5.60;;
1747;SDS011;871;47.034;15.394;2022-12-11T19:48:44;39.90;;;4.68;;
1747;SDS011;871;47.034;15.394;2022-12-11T19:51:12;45.03;;;7.40;;
1747;SDS011;871;47.034;15.394;2022-12-11T19:53:39;42.30;;;5.35;;
1747;SDS011;871;47.034;15.394;2022-12-11T19:56:05;51.38;;;8.02;;
1747;SDS011;871;47.034;15.394;2022-12-11T19:58:33;44.13;;;6.90;;
1747;SDS011;871;47.034;15.394;2022-12-11T20:01:01;42.90;;;6.45;;
1747;SDS011;871;47.034;15.394;2022-12-11T20:03:27;43.40;;;6.32;;
1747;SDS011;871;47.034;15.394;2022-12-11T20:06:05;45.30;;;6.35;;
1747;SDS011;871;47.034;15.394;2022-12-11T20:08:32;43.00;;;5.80;;
1747;SDS011;871;47.034;15.394;2022-12-11T20:11:05;41.25;;;5.47;;
1747;SDS011;871;47.034;15.394;2022-12-11T20:13:34;40.53;;;4.55;;
1747;SDS011;871;47.034;15.394;2022-12-11T20:16:01;41.30;;;5.47;;
1747;SDS011;871;47.034;15.394;2022-12-11T20:18:29;42.72;;;5.70;;
1747;SDS011;871;47.034;15.394;2022-12-11T20:20:59;43.72;;;5.70;;
1747;SDS011;871;47.034;15.394;2022-12-11T20:23:25;45.92;;;6.97;;
1747;SDS011;871;47.034;15.394;2022-12-11T20:25:52;43.20;;;6.15;;
1747;SDS011;871;47.034;15.394;2022-12-11T20:28:19;45.80;;;6.93;;
1747;SDS011;871;47.034;15.394;2022-12-11T20:30:46;44.53;;;6.75;;
1747;SDS011;871;47.034;15.394;2022-12-11T20:33:14;41.83;;;5.55;;
1747;SDS011;871;47.034;15.394;2022-12-11T20:35:41;42.65;;;6.03;;
1747;SDS011;871;47.034;15.394;2022-12-11T20:38:09;42.00;;;5.40;;
1747;SDS011;871;47.034;15.394;2022-12-11T20:40:36;40.85;;;4.72;;
1747;SDS011;871;47.034;15.394;2022-12-11T20:43:03;44.92;;;5.93;;
1747;SDS011;871;47.034;15.394;2022-12-11T20:45:29;40.75;;;6.03;;
1747;SDS011;871;47.034;15.394;2022-12-11T20:47:55;42.22;;;6.13;;
1747;SDS011;871;47.034;15.394;2022-12-11T20:50:21;43.47;;;7.38;;
1747;SDS011;871;47.034;15.394;2022-12-11T20:52:48;41.92;;;5.80;;
1747;SDS011;871;47.034;15.394;2022-12-11T20:55:14;42.30;;;6.15;;
1747;SDS011;871;47.034;15.394;2022-12-11T20:57:41;41.05;;;5.47;;
1747;SDS011;871;47.034;15.394;2022-12-11T21:00:12;44.35;;;5.82;;
1747;SDS011;871;47.034;15.394;2022-12-11T21:02:39;42.80;;;5.57;;
1747;SDS011;871;47.034;15.394;2022-12-11T21:05:05;46.53;;;7.32;;
1747;SDS011;871;47.034;15.394;2022-12-11T21:07:33;40.85;;;5.65;;
1747;SDS011;871;47.034;15.394;2022-12-11T21:09:59;42.58;;;6.03;;